sensor_id;sensor_type;location;lat;lon;timestamp;temperature;humidity
8487;DHT22;4280;50.534;8.708;2022-12-05T00:54:32;3.10;28.70
8487;DHT22;4280;50.534;8.708;2022-12-05T00:57:02;2.70;99.90
8487;DHT22;4280;50.534;8.708;2022-12-05T00:59:33;2.60;99.90
8487;DHT22;4280;50.534;8.708;2022-12-05T01:02:03;2.60;99.90
8487;DHT22;4280;50.534;8.708;2022-12-05T01:04:33;2.60;99.90
8487;DHT22;4280;50.534;8.708;2022-12-05T01:07:03;2.60;99.90
8487;DHT22;4280;50.534;8.708;2022-12-05T01:09:36;2.60;99.90
8487;DHT22;4280;50.534;8.708;2022-12-05T01:12:06;2.60;99.90
8487;DHT22;4280;50.534;8.708;2022-12-05T01:14:36;2.60;99.90
8487;DHT22;4280;50.534;8.708;2022-12-05T01:17:06;2.60;99.90
8487;DHT22;4280;50.534;8.708;2022-12-05T01:19:36;2.60;99.90
8487;DHT22;4280;50.534;8.708;2022-12-05T01:22:06;2.60;99.90
8487;DHT22;4280;50.534;8.708;2022-12-05T01:24:39;2.70;99.90
8487;DHT22;4280;50.534;8.708;2022-12-05T01:27:09;2.70;99.90
8487;DHT22;4280;50.534;8.708;2022-12-05T01:29:39;2.60;99.90
8487;DHT22;4280;50.534;8.708;2022-12-05T01:32:09;2.60;99.90
8487;DHT22;4280;50.534;8.708;2022-12-05T01:34:39;2.60;99.90
8487;DHT22;4280;50.534;8.708;2022-12-05T01:37:09;2.50;99.90
8487;DHT22;4280;50.534;8.708;2022-12-05T01:39:41;2.40;99.90
8487;DHT22;4280;50.534;8.708;2022-12-05T01:42:11;2.40;99.90
8487;DHT22;4280;50.534;8.708;2022-12-05T01:47:29;2.40;99.90
8487;DHT22;4280;50.534;8.708;2022-12-05T01:50:00;2.30;99.90
8487;DHT22;4280;50.534;8.708;2022-12-05T01:52:30;2.30;99.90
8487;DHT22;4280;50.534;8.708;2022-12-05T01:55:06;2.30;99.90
8487;DHT22;4280;50.534;8.708;2022-12-05T01:57:39;2.30;99.90
8487;DHT22;4280;50.534;8.708;2022-12-05T02:00:12;2.30;99.90
8487;DHT22;4280;50.534;8.708;2022-12-05T02:02:45;2.30;99.90
8487;DHT22;4280;50.534;8.708;2022-12-05T02:05:19;2.30;99.90
8487;DHT22;4280;50.534;8.708;2022-12-05T02:07:50;2.20;99.90
8487;DHT22;4280;50.534;8.708;2022-12-05T02:10:23;2.20;99.90
8487;DHT22;4280;50.534;8.708;2022-12-05T02:12:54;2.10;99.90
8487;DHT22;4280;50.534;8.708;2022-12-05T02:15:31;2.00;99.90
8487;DHT22;4280;50.534;8.708;2022-12-05T02:18:08;2.00;99.90
8487;DHT22;4280;50.534;8.708;2022-12-05T02:20:46;2.00;99.90
8487;DHT22;4280;50.534;8.708;2022-12-05T02:26:34;2.00;99.90
8487;DHT22;4280;50.534;8.708;2022-12-05T02:32:24;1.90;99.90
8487;DHT22;4280;50.534;8.708;2022-12-05T02:35:02;1.90;99.90
8487;DHT22;4280;50.534;8.708;2022-12-05T02:37:40;1.90;99.90
8487;DHT22;4280;50.534;8.708;2022-12-05T02:40:13;1.90;99.90
8487;DHT22;4280;50.534;8.708;2022-12-05T02:42:48;2.00;99.90
8487;DHT22;4280;50.534;8.708;2022-12-05T02:45:19;1.90;99.90
8487;DHT22;4280;50.534;8.708;2022-12-05T02:47:56;2.00;99.90
8487;DHT22;4280;50.534;8.708;2022-12-05T02:50:27;2.00;99.90
8487;DHT22;4280;50.534;8.708;2022-12-05T02:52:59;2.00;99.90
8487;DHT22;4280;50.534;8.708;2022-12-05T02:55:32;2.00;99.90
8487;DHT22;4280;50.534;8.708;2022-12-05T02:58:03;1.90;99.90
8487;DHT22;4280;50.534;8.708;2022-12-05T03:00:36;1.90;99.90
8487;DHT22;4280;50.534;8.708;2022-12-05T03:03:14;1.90;99.90
8487;DHT22;4280;50.534;8.708;2022-12-05T03:05:48;1.80;99.90
8487;DHT22;4280;50.534;8.708;2022-12-05T03:08:21;1.90;99.90
8487;DHT22;4280;50.534;8.708;2022-12-05T03:10:52;1.90;99.90
8487;DHT22;4280;50.534;8.708;2022-12-05T03:13:23;1.90;99.90
8487;DHT22;4280;50.534;8.708;2022-12-05T03:15:58;2.00;99.90
8487;DHT22;4280;50.534;8.708;2022-12-05T03:18:32;2.00;99.90
8487;DHT22;4280;50.534;8.708;2022-12-05T03:21:07;2.10;99.90
8487;DHT22;4280;50.534;8.708;2022-12-05T03:23:41;2.10;99.90
8487;DHT22;4280;50.534;8.708;2022-12-05T03:26:15;2.10;99.90
8487;DHT22;4280;50.534;8.708;2022-12-05T03:28:53;2.10;99.90
8487;DHT22;4280;50.534;8.708;2022-12-05T03:31:33;2.10;99.90
8487;DHT22;4280;50.534;8.708;2022-12-05T03:34:11;2.10;99.90
8487;DHT22;4280;50.534;8.708;2022-12-05T03:36:45;2.10;99.90
8487;DHT22;4280;50.534;8.708;2022-12-05T03:39:19;2.00;99.90
8487;DHT22;4280;50.534;8.708;2022-12-05T03:41:53;2.10;99.90
8487;DHT22;4280;50.534;8.708;2022-12-05T03:44:27;2.10;99.90
8487;DHT22;4280;50.534;8.708;2022-12-05T03:47:00;2.10;99.90
8487;DHT22;4280;50.534;8.708;2022-12-05T03:49:35;2.10;99.90
8487;DHT22;4280;50.534;8.708;2022-12-05T03:52:08;2.10;99.90
8487;DHT22;4280;50.534;8.708;2022-12-05T03:54:44;2.10;99.10
8487;DHT22;4280;50.534;8.708;2022-12-05T03:57:16;2.10;98.60
8487;DHT22;4280;50.534;8.708;2022-12-05T03:59:51;2.10;98.30
8487;DHT22;4280;50.534;8.708;2022-12-05T04:02:23;2.10;97.80
8487;DHT22;4280;50.534;8.708;2022-12-05T04:05:00;2.00;98.20
8487;DHT22;4280;50.534;8.708;2022-12-05T04:07:33;2.10;97.20
8487;DHT22;4280;50.534;8.708;2022-12-05T04:10:06;2.10;96.60
8487;DHT22;4280;50.534;8.708;2022-12-05T04:12:38;2.20;98.40
8487;DHT22;4280;50.534;8.708;2022-12-05T04:15:13;2.20;98.30
8487;DHT22;4280;50.534;8.708;2022-12-05T04:17:47;2.20;97.00
8487;DHT22;4280;50.534;8.708;2022-12-05T04:20:22;2.20;96.50
8487;DHT22;4280;50.534;8.708;2022-12-05T04:23:07;2.20;96.50
8487;DHT22;4280;50.534;8.708;2022-12-05T04:25:38;2.20;96.70
8487;DHT22;4280;50.534;8.708;2022-12-05T04:28:16;2.20;96.80
8487;DHT22;4280;50.534;8.708;2022-12-05T04:30:56;2.30;96.70
8487;DHT22;4280;50.534;8.708;2022-12-05T04:33:32;2.30;96.80
8487;DHT22;4280;50.534;8.708;2022-12-05T04:36:08;2.30;96.50
8487;DHT22;4280;50.534;8.708;2022-12-05T04:38:42;2.30;95.30
8487;DHT22;4280;50.534;8.708;2022-12-05T04:41:16;2.30;94.70
8487;DHT22;4280;50.534;8.708;2022-12-05T04:43:49;2.30;94.30
8487;DHT22;4280;50.534;8.708;2022-12-05T04:46:20;2.30;95.50
8487;DHT22;4280;50.534;8.708;2022-12-05T04:48:56;2.30;94.70
8487;DHT22;4280;50.534;8.708;2022-12-05T04:51:31;2.30;95.70
8487;DHT22;4280;50.534;8.708;2022-12-05T04:54:03;2.30;96.40
8487;DHT22;4280;50.534;8.708;2022-12-05T04:56:40;2.30;95.30
8487;DHT22;4280;50.534;8.708;2022-12-05T04:59:11;2.30;95.20
8487;DHT22;4280;50.534;8.708;2022-12-05T05:01:42;2.30;95.40
8487;DHT22;4280;50.534;8.708;2022-12-05T05:04:16;2.30;95.40
8487;DHT22;4280;50.534;8.708;2022-12-05T05:06:50;2.30;96.10
8487;DHT22;4280;50.534;8.708;2022-12-05T05:09:20;2.30;95.30
8487;DHT22;4280;50.534;8.708;2022-12-05T05:11:50;2.30;96.60
8487;DHT22;4280;50.534;8.708;2022-12-05T05:14:20;2.40;95.60
8487;DHT22;4280;50.534;8.708;2022-12-05T05:16:50;2.40;95.60
8487;DHT22;4280;50.534;8.708;2022-12-05T05:19:21;2.40;95.30
8487;DHT22;4280;50.534;8.708;2022-12-05T05:21:55;2.40;95.30
8487;DHT22;4280;50.534;8.708;2022-12-05T05:24:26;2.30;95.00
8487;DHT22;4280;50.534;8.708;2022-12-05T05:26:56;2.40;95.00
8487;DHT22;4280;50.534;8.708;2022-12-05T05:29:26;2.40;97.00
8487;DHT22;4280;50.534;8.708;2022-12-05T05:31:56;2.40;96.30
8487;DHT22;4280;50.534;8.708;2022-12-05T05:34:26;2.40;96.50
8487;DHT22;4280;50.534;8.708;2022-12-05T05:36:59;2.40;95.90
8487;DHT22;4280;50.534;8.708;2022-12-05T05:39:29;2.50;96.20
8487;DHT22;4280;50.534;8.708;2022-12-05T05:42:00;2.50;96.20
8487;DHT22;4280;50.534;8.708;2022-12-05T05:44:30;2.50;96.20
8487;DHT22;4280;50.534;8.708;2022-12-05T05:47:01;2.50;96.90
8487;DHT22;4280;50.534;8.708;2022-12-05T05:49:31;2.50;96.50
8487;DHT22;4280;50.534;8.708;2022-12-05T05:52:04;2.40;94.00
8487;DHT22;4280;50.534;8.708;2022-12-05T05:54:35;2.40;95.60
8487;DHT22;4280;50.534;8.708;2022-12-05T05:57:06;2.30;95.10
8487;DHT22;4280;50.534;8.708;2022-12-05T05:59:36;2.20;96.30
8487;DHT22;4280;50.534;8.708;2022-12-05T06:02:07;2.20;97.50
8487;DHT22;4280;50.534;8.708;2022-12-05T06:04:37;2.20;99.20
8487;DHT22;4280;50.534;8.708;2022-12-05T06:07:10;2.30;99.90
8487;DHT22;4280;50.534;8.708;2022-12-05T06:09:41;2.40;99.90
8487;DHT22;4280;50.534;8.708;2022-12-05T06:12:13;2.40;99.90
8487;DHT22;4280;50.534;8.708;2022-12-05T06:14:43;2.40;99.90
8487;DHT22;4280;50.534;8.708;2022-12-05T06:17:17;2.40;99.90
8487;DHT22;4280;50.534;8.708;2022-12-05T06:19:48;2.40;99.90
8487;DHT22;4280;50.534;8.708;2022-12-05T06:22:22;2.50;99.90
8487;DHT22;4280;50.534;8.708;2022-12-05T06:24:53;2.60;99.90
8487;DHT22;4280;50.534;8.708;2022-12-05T06:27:24;2.60;99.90
8487;DHT22;4280;50.534;8.708;2022-12-05T06:29:55;2.50;99.90
8487;DHT22;4280;50.534;8.708;2022-12-05T06:32:27;2.50;99.90
8487;DHT22;4280;50.534;8.708;2022-12-05T06:34:58;2.60;99.90
8487;DHT22;4280;50.534;8.708;2022-12-05T06:37:37;2.80;99.90
8487;DHT22;4280;50.534;8.708;2022-12-05T06:40:08;2.90;99.90
8487;DHT22;4280;50.534;8.708;2022-12-05T06:42:39;2.80;92.90
8487;DHT22;4280;50.534;8.708;2022-12-05T06:45:10;2.70;85.90
8487;DHT22;4280;50.534;8.708;2022-12-05T06:47:41;2.60;82.30
8487;DHT22;4280;50.534;8.708;2022-12-05T06:50:11;2.50;85.90
8487;DHT22;4280;50.534;8.708;2022-12-05T06:52:45;2.50;85.80
8487;DHT22;4280;50.534;8.708;2022-12-05T06:55:16;2.40;89.40
8487;DHT22;4280;50.534;8.708;2022-12-05T06:57:47;2.40;89.90
8487;DHT22;4280;50.534;8.708;2022-12-05T07:00:18;2.40;89.40
8487;DHT22;4280;50.534;8.708;2022-12-05T07:03:02;2.40;91.70
8487;DHT22;4280;50.534;8.708;2022-12-05T07:05:33;2.30;93.10
8487;DHT22;4280;50.534;8.708;2022-12-05T07:08:07;2.30;93.70
8487;DHT22;4280;50.534;8.708;2022-12-05T07:10:38;2.30;95.00
8487;DHT22;4280;50.534;8.708;2022-12-05T07:13:09;2.40;95.80
8487;DHT22;4280;50.534;8.708;2022-12-05T07:15:41;2.50;97.10
8487;DHT22;4280;50.534;8.708;2022-12-05T07:18:12;2.50;96.80
8487;DHT22;4280;50.534;8.708;2022-12-05T07:20:43;2.50;95.00
8487;DHT22;4280;50.534;8.708;2022-12-05T07:23:37;2.40;93.90
8487;DHT22;4280;50.534;8.708;2022-12-05T07:26:09;2.40;93.90
8487;DHT22;4280;50.534;8.708;2022-12-05T07:28:40;2.30;92.90
8487;DHT22;4280;50.534;8.708;2022-12-05T07:31:11;2.30;94.50
8487;DHT22;4280;50.534;8.708;2022-12-05T07:33:43;2.20;96.00
8487;DHT22;4280;50.534;8.708;2022-12-05T07:36:15;2.20;99.90
8487;DHT22;4280;50.534;8.708;2022-12-05T07:38:52;2.20;99.90
8487;DHT22;4280;50.534;8.708;2022-12-05T07:41:25;2.20;99.90
8487;DHT22;4280;50.534;8.708;2022-12-05T07:43:58;2.30;99.90
8487;DHT22;4280;50.534;8.708;2022-12-05T07:46:29;2.30;99.90
8487;DHT22;4280;50.534;8.708;2022-12-05T07:49:01;2.30;99.90
8487;DHT22;4280;50.534;8.708;2022-12-05T07:51:32;2.20;99.90
8487;DHT22;4280;50.534;8.708;2022-12-05T07:54:05;2.30;99.90
8487;DHT22;4280;50.534;8.708;2022-12-05T07:56:37;2.30;99.90
8487;DHT22;4280;50.534;8.708;2022-12-05T07:59:12;2.20;99.90
8487;DHT22;4280;50.534;8.708;2022-12-05T08:01:43;2.20;99.90
8487;DHT22;4280;50.534;8.708;2022-12-05T08:04:15;2.20;99.90
8487;DHT22;4280;50.534;8.708;2022-12-05T08:06:46;2.30;99.90
8487;DHT22;4280;50.534;8.708;2022-12-05T08:09:19;2.30;99.90
8487;DHT22;4280;50.534;8.708;2022-12-05T08:11:50;2.30;99.90
8487;DHT22;4280;50.534;8.708;2022-12-05T08:14:22;2.40;99.90
8487;DHT22;4280;50.534;8.708;2022-12-05T08:16:54;2.50;99.90
8487;DHT22;4280;50.534;8.708;2022-12-05T08:19:25;2.50;99.90
8487;DHT22;4280;50.534;8.708;2022-12-05T08:21:56;2.50;99.90
8487;DHT22;4280;50.534;8.708;2022-12-05T08:24:31;2.50;99.90
8487;DHT22;4280;50.534;8.708;2022-12-05T08:27:03;2.50;99.90
8487;DHT22;4280;50.534;8.708;2022-12-05T08:29:35;2.50;99.90
8487;DHT22;4280;50.534;8.708;2022-12-05T08:32:06;2.60;99.90
8487;DHT22;4280;50.534;8.708;2022-12-05T08:34:38;2.60;99.90
8487;DHT22;4280;50.534;8.708;2022-12-05T08:37:09;2.60;99.90
8487;DHT22;4280;50.534;8.708;2022-12-05T08:39:44;2.60;99.90
8487;DHT22;4280;50.534;8.708;2022-12-05T08:42:16;2.70;99.90
8487;DHT22;4280;50.534;8.708;2022-12-05T08:44:47;2.60;99.90
8487;DHT22;4280;50.534;8.708;2022-12-05T08:47:20;2.70;99.90
8487;DHT22;4280;50.534;8.708;2022-12-05T08:49:51;2.70;99.90
8487;DHT22;4280;50.534;8.708;2022-12-05T08:52:22;2.70;99.90
8487;DHT22;4280;50.534;8.708;2022-12-05T08:54:56;2.80;99.90
8487;DHT22;4280;50.534;8.708;2022-12-05T08:57:28;2.70;99.90
8487;DHT22;4280;50.534;8.708;2022-12-05T08:59:59;2.80;99.90
8487;DHT22;4280;50.534;8.708;2022-12-05T09:02:32;2.80;99.90
8487;DHT22;4280;50.534;8.708;2022-12-05T09:05:03;2.90;99.90
8487;DHT22;4280;50.534;8.708;2022-12-05T09:07:52;3.00;99.90
8487;DHT22;4280;50.534;8.708;2022-12-05T09:10:25;3.10;99.90
8487;DHT22;4280;50.534;8.708;2022-12-05T09:12:57;3.10;99.90
8487;DHT22;4280;50.534;8.708;2022-12-05T09:15:28;3.20;99.90
8487;DHT22;4280;50.534;8.708;2022-12-05T09:17:59;3.30;99.90
8487;DHT22;4280;50.534;8.708;2022-12-05T09:20:31;3.30;99.90
8487;DHT22;4280;50.534;8.708;2022-12-05T09:23:03;3.30;99.90
8487;DHT22;4280;50.534;8.708;2022-12-05T09:25:40;3.20;99.90
8487;DHT22;4280;50.534;8.708;2022-12-05T09:28:13;3.20;99.90
8487;DHT22;4280;50.534;8.708;2022-12-05T09:30:54;3.20;99.90
8487;DHT22;4280;50.534;8.708;2022-12-05T09:33:28;3.30;99.90
8487;DHT22;4280;50.534;8.708;2022-12-05T09:36:01;3.30;99.90
8487;DHT22;4280;50.534;8.708;2022-12-05T09:38:34;3.30;99.90
8487;DHT22;4280;50.534;8.708;2022-12-05T09:41:11;3.40;99.90
8487;DHT22;4280;50.534;8.708;2022-12-05T09:43:48;3.50;99.90
8487;DHT22;4280;50.534;8.708;2022-12-05T09:46:24;3.50;99.90
8487;DHT22;4280;50.534;8.708;2022-12-05T09:49:02;3.50;99.90
8487;DHT22;4280;50.534;8.708;2022-12-05T09:51:34;3.50;99.90
8487;DHT22;4280;50.534;8.708;2022-12-05T09:54:10;3.50;99.90
8487;DHT22;4280;50.534;8.708;2022-12-05T09:56:45;3.60;99.90
8487;DHT22;4280;50.534;8.708;2022-12-05T09:59:22;3.70;99.90
8487;DHT22;4280;50.534;8.708;2022-12-05T10:01:55;3.90;99.90
8487;DHT22;4280;50.534;8.708;2022-12-05T10:04:32;3.90;99.10
8487;DHT22;4280;50.534;8.708;2022-12-05T10:07:20;4.00;97.80
8487;DHT22;4280;50.534;8.708;2022-12-05T10:10:00;4.10;94.00
8487;DHT22;4280;50.534;8.708;2022-12-05T10:12:50;4.20;92.60
8487;DHT22;4280;50.534;8.708;2022-12-05T10:15:30;4.30;77.60
8487;DHT22;4280;50.534;8.708;2022-12-05T10:18:04;4.40;75.50
8487;DHT22;4280;50.534;8.708;2022-12-05T10:20:42;4.40;70.20
8487;DHT22;4280;50.534;8.708;2022-12-05T10:23:17;4.50;67.60
8487;DHT22;4280;50.534;8.708;2022-12-05T10:26:08;4.50;67.80
8487;DHT22;4280;50.534;8.708;2022-12-05T10:28:45;4.50;63.70
8487;DHT22;4280;50.534;8.708;2022-12-05T10:31:21;4.40;66.40
8487;DHT22;4280;50.534;8.708;2022-12-05T10:33:59;4.40;68.80
8487;DHT22;4280;50.534;8.708;2022-12-05T10:36:33;4.40;72.00
8487;DHT22;4280;50.534;8.708;2022-12-05T10:39:06;4.40;68.60
8487;DHT22;4280;50.534;8.708;2022-12-05T10:41:39;4.40;65.90
8487;DHT22;4280;50.534;8.708;2022-12-05T10:44:13;4.50;66.50
8487;DHT22;4280;50.534;8.708;2022-12-05T10:46:45;4.50;63.80
8487;DHT22;4280;50.534;8.708;2022-12-05T10:49:16;4.50;59.70
8487;DHT22;4280;50.534;8.708;2022-12-05T10:51:49;4.50;57.10
8487;DHT22;4280;50.534;8.708;2022-12-05T10:54:21;4.50;55.40
8487;DHT22;4280;50.534;8.708;2022-12-05T10:56:55;4.60;55.40
8487;DHT22;4280;50.534;8.708;2022-12-05T10:59:42;4.70;54.30
8487;DHT22;4280;50.534;8.708;2022-12-05T11:02:17;4.70;55.40
8487;DHT22;4280;50.534;8.708;2022-12-05T11:04:52;4.80;60.60
8487;DHT22;4280;50.534;8.708;2022-12-05T11:07:28;4.80;57.10
8487;DHT22;4280;50.534;8.708;2022-12-05T11:10:01;4.70;55.40
8487;DHT22;4280;50.534;8.708;2022-12-05T11:12:35;4.80;54.60
8487;DHT22;4280;50.534;8.708;2022-12-05T11:15:19;4.70;50.00
8487;DHT22;4280;50.534;8.708;2022-12-05T11:17:51;4.70;47.90
8487;DHT22;4280;50.534;8.708;2022-12-05T11:20:32;4.70;63.60
8487;DHT22;4280;50.534;8.708;2022-12-05T11:25:56;4.70;55.40
8487;DHT22;4280;50.534;8.708;2022-12-05T11:28:32;4.70;55.90
8487;DHT22;4280;50.534;8.708;2022-12-05T11:31:18;4.70;57.40
8487;DHT22;4280;50.534;8.708;2022-12-05T11:33:59;4.70;48.80
8487;DHT22;4280;50.534;8.708;2022-12-05T11:36:34;4.80;50.40
8487;DHT22;4280;50.534;8.708;2022-12-05T11:39:08;4.80;48.80
8487;DHT22;4280;50.534;8.708;2022-12-05T11:44:39;4.80;49.70
8487;DHT22;4280;50.534;8.708;2022-12-05T11:47:31;4.90;50.70
8487;DHT22;4280;50.534;8.708;2022-12-05T11:50:24;4.80;44.70
8487;DHT22;4280;50.534;8.708;2022-12-05T11:53:04;4.80;45.20
8487;DHT22;4280;50.534;8.708;2022-12-05T11:55:44;4.80;39.70
8487;DHT22;4280;50.534;8.708;2022-12-05T11:58:22;4.70;41.00
8487;DHT22;4280;50.534;8.708;2022-12-05T12:01:10;4.70;39.40
8487;DHT22;4280;50.534;8.708;2022-12-05T12:04:04;4.70;40.50
8487;DHT22;4280;50.534;8.708;2022-12-05T12:06:46;4.80;34.90
8487;DHT22;4280;50.534;8.708;2022-12-05T12:09:29;4.70;31.10
8487;DHT22;4280;50.534;8.708;2022-12-05T12:12:06;4.60;32.10
8487;DHT22;4280;50.534;8.708;2022-12-05T12:14:44;4.70;37.50
8487;DHT22;4280;50.534;8.708;2022-12-05T12:17:20;4.70;40.30
8487;DHT22;4280;50.534;8.708;2022-12-05T12:20:03;4.70;37.00
8487;DHT22;4280;50.534;8.708;2022-12-05T12:22:47;4.70;35.70
8487;DHT22;4280;50.534;8.708;2022-12-05T12:25:28;4.70;35.60
8487;DHT22;4280;50.534;8.708;2022-12-05T12:28:06;4.60;43.50
8487;DHT22;4280;50.534;8.708;2022-12-05T12:30:50;4.60;31.90
8487;DHT22;4280;50.534;8.708;2022-12-05T12:33:28;4.50;32.70
8487;DHT22;4280;50.534;8.708;2022-12-05T12:36:05;4.50;32.00
8487;DHT22;4280;50.534;8.708;2022-12-05T12:38:46;4.40;34.40
8487;DHT22;4280;50.534;8.708;2022-12-05T12:41:29;4.50;36.00
8487;DHT22;4280;50.534;8.708;2022-12-05T12:44:07;4.50;45.40
8487;DHT22;4280;50.534;8.708;2022-12-05T12:46:51;4.60;47.90
8487;DHT22;4280;50.534;8.708;2022-12-05T12:49:27;4.60;40.10
8487;DHT22;4280;50.534;8.708;2022-12-05T12:52:10;4.60;40.00
8487;DHT22;4280;50.534;8.708;2022-12-05T12:54:45;4.70;37.50
8487;DHT22;4280;50.534;8.708;2022-12-05T12:57:33;4.70;34.50
8487;DHT22;4280;50.534;8.708;2022-12-05T13:00:11;4.70;33.30
8487;DHT22;4280;50.534;8.708;2022-12-05T13:02:50;4.60;34.50
8487;DHT22;4280;50.534;8.708;2022-12-05T13:05:26;4.60;32.10
8487;DHT22;4280;50.534;8.708;2022-12-05T13:08:04;4.60;38.80
8487;DHT22;4280;50.534;8.708;2022-12-05T13:10:40;4.60;38.00
8487;DHT22;4280;50.534;8.708;2022-12-05T13:13:12;4.70;37.40
8487;DHT22;4280;50.534;8.708;2022-12-05T13:15:45;4.70;33.00
8487;DHT22;4280;50.534;8.708;2022-12-05T13:18:18;4.70;31.90
8487;DHT22;4280;50.534;8.708;2022-12-05T13:20:51;4.70;31.60
8487;DHT22;4280;50.534;8.708;2022-12-05T13:23:26;4.70;31.70
8487;DHT22;4280;50.534;8.708;2022-12-05T13:25:57;4.60;33.50
8487;DHT22;4280;50.534;8.708;2022-12-05T13:28:29;4.60;40.40
8487;DHT22;4280;50.534;8.708;2022-12-05T13:31:00;4.60;35.40
8487;DHT22;4280;50.534;8.708;2022-12-05T13:33:33;4.70;35.20
8487;DHT22;4280;50.534;8.708;2022-12-05T13:36:05;4.60;32.80
8487;DHT22;4280;50.534;8.708;2022-12-05T13:38:57;4.60;39.20
8487;DHT22;4280;50.534;8.708;2022-12-05T13:41:41;4.60;37.80
8487;DHT22;4280;50.534;8.708;2022-12-05T13:44:27;4.60;36.70
8487;DHT22;4280;50.534;8.708;2022-12-05T13:46:59;4.50;36.40
8487;DHT22;4280;50.534;8.708;2022-12-05T13:49:41;4.60;38.40
8487;DHT22;4280;50.534;8.708;2022-12-05T13:52:14;4.50;31.60
8487;DHT22;4280;50.534;8.708;2022-12-05T13:54:50;4.40;31.40
8487;DHT22;4280;50.534;8.708;2022-12-05T14:00:20;4.40;34.80
8487;DHT22;4280;50.534;8.708;2022-12-05T14:02:57;4.30;34.30
8487;DHT22;4280;50.534;8.708;2022-12-05T14:05:37;4.30;36.50
8487;DHT22;4280;50.534;8.708;2022-12-05T14:11:34;4.30;33.60
8487;DHT22;4280;50.534;8.708;2022-12-05T14:14:05;4.30;33.30
8487;DHT22;4280;50.534;8.708;2022-12-05T14:16:39;4.40;42.30
8487;DHT22;4280;50.534;8.708;2022-12-05T14:22:02;4.30;44.50
8487;DHT22;4280;50.534;8.708;2022-12-05T14:24:43;4.30;47.60
8487;DHT22;4280;50.534;8.708;2022-12-05T14:27:22;4.30;50.30
8487;DHT22;4280;50.534;8.708;2022-12-05T14:29:58;4.40;44.40
8487;DHT22;4280;50.534;8.708;2022-12-05T14:32:32;4.30;43.50
8487;DHT22;4280;50.534;8.708;2022-12-05T14:35:09;4.30;41.60
8487;DHT22;4280;50.534;8.708;2022-12-05T14:37:41;4.40;44.30
8487;DHT22;4280;50.534;8.708;2022-12-05T14:40:20;4.40;40.90
8487;DHT22;4280;50.534;8.708;2022-12-05T14:42:57;4.40;51.10
8487;DHT22;4280;50.534;8.708;2022-12-05T14:45:30;4.40;52.90
8487;DHT22;4280;50.534;8.708;2022-12-05T14:48:03;4.40;54.80
8487;DHT22;4280;50.534;8.708;2022-12-05T14:50:36;4.40;51.30
8487;DHT22;4280;50.534;8.708;2022-12-05T14:53:21;4.30;49.00
8487;DHT22;4280;50.534;8.708;2022-12-05T14:56:16;4.20;54.10
8487;DHT22;4280;50.534;8.708;2022-12-05T14:58:50;4.10;56.50
8487;DHT22;4280;50.534;8.708;2022-12-05T15:01:25;4.10;64.30
8487;DHT22;4280;50.534;8.708;2022-12-05T15:03:59;4.20;57.00
8487;DHT22;4280;50.534;8.708;2022-12-05T15:06:33;4.20;61.40
8487;DHT22;4280;50.534;8.708;2022-12-05T15:09:27;4.10;58.80
8487;DHT22;4280;50.534;8.708;2022-12-05T15:12:15;4.10;57.00
8487;DHT22;4280;50.534;8.708;2022-12-05T15:14:51;4.10;60.90
8487;DHT22;4280;50.534;8.708;2022-12-05T15:17:26;4.10;65.90
8487;DHT22;4280;50.534;8.708;2022-12-05T15:20:00;4.00;67.40
8487;DHT22;4280;50.534;8.708;2022-12-05T15:22:33;4.00;66.00
8487;DHT22;4280;50.534;8.708;2022-12-05T15:28:00;4.00;71.20
8487;DHT22;4280;50.534;8.708;2022-12-05T15:30:36;4.00;68.30
8487;DHT22;4280;50.534;8.708;2022-12-05T15:33:10;4.00;71.90
8487;DHT22;4280;50.534;8.708;2022-12-05T15:35:40;4.00;76.30
8487;DHT22;4280;50.534;8.708;2022-12-05T15:38:16;4.10;77.40
8487;DHT22;4280;50.534;8.708;2022-12-05T15:40:52;4.00;69.50
8487;DHT22;4280;50.534;8.708;2022-12-05T15:43:26;4.10;73.50
8487;DHT22;4280;50.534;8.708;2022-12-05T15:48:55;4.20;71.60
8487;DHT22;4280;50.534;8.708;2022-12-05T15:51:29;4.20;66.30
8487;DHT22;4280;50.534;8.708;2022-12-05T15:54:03;4.20;68.20
8487;DHT22;4280;50.534;8.708;2022-12-05T15:56:36;4.20;73.80
8487;DHT22;4280;50.534;8.708;2022-12-05T15:59:10;4.20;69.60
8487;DHT22;4280;50.534;8.708;2022-12-05T16:01:46;4.20;77.20
8487;DHT22;4280;50.534;8.708;2022-12-05T16:04:20;4.30;76.20
8487;DHT22;4280;50.534;8.708;2022-12-05T16:06:56;4.30;75.80
8487;DHT22;4280;50.534;8.708;2022-12-05T16:09:29;4.20;76.00
8487;DHT22;4280;50.534;8.708;2022-12-05T16:12:02;4.20;65.70
8487;DHT22;4280;50.534;8.708;2022-12-05T16:14:34;4.20;68.00
8487;DHT22;4280;50.534;8.708;2022-12-05T16:17:35;4.20;67.00
8487;DHT22;4280;50.534;8.708;2022-12-05T16:22:59;4.20;75.60
8487;DHT22;4280;50.534;8.708;2022-12-05T16:25:32;4.20;72.00
8487;DHT22;4280;50.534;8.708;2022-12-05T16:28:12;4.20;71.60
8487;DHT22;4280;50.534;8.708;2022-12-05T16:30:54;4.20;71.10
8487;DHT22;4280;50.534;8.708;2022-12-05T16:33:29;4.20;73.30
8487;DHT22;4280;50.534;8.708;2022-12-05T16:36:08;4.10;69.50
8487;DHT22;4280;50.534;8.708;2022-12-05T16:38:38;4.10;72.90
8487;DHT22;4280;50.534;8.708;2022-12-05T16:41:15;4.20;76.80
8487;DHT22;4280;50.534;8.708;2022-12-05T16:43:45;4.20;77.00
8487;DHT22;4280;50.534;8.708;2022-12-05T16:49:20;4.20;77.10
8487;DHT22;4280;50.534;8.708;2022-12-05T16:52:01;4.10;79.60
8487;DHT22;4280;50.534;8.708;2022-12-05T16:54:33;4.10;79.80
8487;DHT22;4280;50.534;8.708;2022-12-05T16:57:02;4.20;81.80
8487;DHT22;4280;50.534;8.708;2022-12-05T16:59:33;4.20;81.10
8487;DHT22;4280;50.534;8.708;2022-12-05T17:02:06;4.20;83.40
8487;DHT22;4280;50.534;8.708;2022-12-05T17:04:43;4.30;82.20
8487;DHT22;4280;50.534;8.708;2022-12-05T17:07:12;4.20;82.30
8487;DHT22;4280;50.534;8.708;2022-12-05T17:09:43;4.10;84.50
8487;DHT22;4280;50.534;8.708;2022-12-05T17:12:15;4.10;86.70
8487;DHT22;4280;50.534;8.708;2022-12-05T17:14:49;4.20;90.20
8487;DHT22;4280;50.534;8.708;2022-12-05T17:17:19;4.10;89.20
8487;DHT22;4280;50.534;8.708;2022-12-05T17:19:52;4.10;90.00
8487;DHT22;4280;50.534;8.708;2022-12-05T17:22:21;4.20;92.10
8487;DHT22;4280;50.534;8.708;2022-12-05T17:24:53;4.30;92.40
8487;DHT22;4280;50.534;8.708;2022-12-05T17:27:26;4.30;93.70
8487;DHT22;4280;50.534;8.708;2022-12-05T17:29:56;4.20;92.90
8487;DHT22;4280;50.534;8.708;2022-12-05T17:32:26;4.20;92.60
8487;DHT22;4280;50.534;8.708;2022-12-05T17:34:59;4.20;87.80
8487;DHT22;4280;50.534;8.708;2022-12-05T17:37:32;4.10;77.00
8487;DHT22;4280;50.534;8.708;2022-12-05T17:40:02;4.10;86.40
8487;DHT22;4280;50.534;8.708;2022-12-05T17:42:33;4.00;87.00
8487;DHT22;4280;50.534;8.708;2022-12-05T17:45:03;3.90;87.40
8487;DHT22;4280;50.534;8.708;2022-12-05T17:47:36;3.90;90.20
8487;DHT22;4280;50.534;8.708;2022-12-05T17:50:09;3.90;93.20
8487;DHT22;4280;50.534;8.708;2022-12-05T17:52:41;3.80;94.60
8487;DHT22;4280;50.534;8.708;2022-12-05T17:55:13;3.80;97.10
8487;DHT22;4280;50.534;8.708;2022-12-05T17:57:45;3.70;97.80
8487;DHT22;4280;50.534;8.708;2022-12-05T18:00:16;3.70;99.10
8487;DHT22;4280;50.534;8.708;2022-12-05T18:02:47;3.80;99.90
8487;DHT22;4280;50.534;8.708;2022-12-05T18:05:21;3.80;99.90
8487;DHT22;4280;50.534;8.708;2022-12-05T18:07:51;3.90;99.90
8487;DHT22;4280;50.534;8.708;2022-12-05T18:10:22;3.90;99.90
8487;DHT22;4280;50.534;8.708;2022-12-05T18:12:53;3.90;99.90
8487;DHT22;4280;50.534;8.708;2022-12-05T18:15:23;3.90;99.90
8487;DHT22;4280;50.534;8.708;2022-12-05T18:17:53;3.80;99.90
8487;DHT22;4280;50.534;8.708;2022-12-05T18:20:26;3.80;99.90
8487;DHT22;4280;50.534;8.708;2022-12-05T18:22:57;3.80;99.90
8487;DHT22;4280;50.534;8.708;2022-12-05T18:25:27;4.00;99.90
8487;DHT22;4280;50.534;8.708;2022-12-05T18:27:57;4.10;99.90
8487;DHT22;4280;50.534;8.708;2022-12-05T18:30:29;4.10;99.90
8487;DHT22;4280;50.534;8.708;2022-12-05T18:32:59;4.20;99.90